M I D A S
Marine Information and Data Acquisition System
Tripno 457 of the Zeeleeuw from 2003-04-01 06:32:29 to 2003-04-01 11:04:48
Back to CruiseResearch ActivitiesStationsMapUnderway DataData graphs

EquipmentUnitsComment
TimeDGPSUTC
LatitudeDGPSDM.mWGS84
LongitudeDGPSDM.mWGS84
HeadingGyrodeg 
SOGDGPSknotsSpeed over ground
COGDGPSdegCourse over ground
DepthEcho soundermeters200 kHz
Missing or incorrect values are displayed as -999
Navigation data collected by the RV Zeeleeuw from 2003-04-01 06:32:29 to 2003-04-01 11:04:48
                                                                                    Next 1000 lines
Time Latitude Longitude Heading SOG COG Depth
2003-04-01 06:32:37 51°13.607 2°56.046 114.5 3.3 287 -999
2003-04-01 06:32:43 51°13.609 2°56.036 116.3 3.5 290 -999
2003-04-01 06:32:48 51°13.611 2°56.029 118 3.8 292 -999
2003-04-01 06:32:53 51°13.613 2°56.021 119.8 4 294 -999
2003-04-01 06:32:57 51°13.615 2°56.015 121.4 4.2 296 -999
2003-04-01 06:33:03 51°13.619 2°56.005 122.7 4.4 299 -999
2003-04-01 06:33:08 51°13.622 2°55.997 123.7 4.6 302 -999
2003-04-01 06:33:13 51°13.625 2°55.989 124.4 4.5 303 -999
2003-04-01 06:33:18 51°13.628 2°55.982 124.8 4.3 304 -999
2003-04-01 06:33:21 51°13.63 2°55.978 125 4 304 5.6
2003-04-01 06:33:27 51°13.634 2°55.97 125 3.8 305 8.2
2003-04-01 06:33:31 51°13.636 2°55.965 124.8 3.7 305 7.1
2003-04-01 06:33:37 51°13.64 2°55.957 124.2 3.6 306 7.5
2003-04-01 06:33:41 51°13.642 2°55.952 123.2 3.5 305 6.7
2003-04-01 06:33:47 51°13.645 2°55.945 121.8 3.4 305 7.3
2003-04-01 06:33:52 51°13.647 2°55.938 120.1 3.4 304 6.8
2003-04-01 06:33:57 51°13.65 2°55.932 118.1 3.3 301 8.2
2003-04-01 06:34:01 51°13.652 2°55.926 116 3.3 300 7.7
2003-04-01 06:34:07 51°13.655 2°55.919 113.9 3.2 298 7.6
2003-04-01 06:34:12 51°13.657 2°55.912 111.5 3.2 296 7.8
2003-04-01 06:34:17 51°13.659 2°55.905 109.3 3.2 293 7.7
2003-04-01 06:34:21 51°13.66 2°55.899 107.4 3.1 292 7.7
2003-04-01 06:34:27 51°13.661 2°55.892 105.8 3 289 7.8
2003-04-01 06:34:32 51°13.662 2°55.886 104.3 3 287 7.8
2003-04-01 06:34:37 51°13.663 2°55.88 102.8 2.9 286 7.4
2003-04-01 06:34:42 51°13.665 2°55.874 101.5 2.9 288 7.6
2003-04-01 06:34:47 51°13.666 2°55.868 100 2.9 287 7.4
2003-04-01 06:34:52 51°13.666 2°55.861 98.5 2.9 283 7.8
2003-04-01 06:34:57 51°13.667 2°55.854 97.2 2.9 280 7.8
2003-04-01 06:35:01 51°13.668 2°55.849 95.8 2.9 279 7.7
2003-04-01 06:35:07 51°13.668 2°55.842 94.4 2.9 277 5
2003-04-01 06:35:12 51°13.668 2°55.835 93.4 2.9 275 7.8
2003-04-01 06:35:17 51°13.668 2°55.829 92.1 2.9 274 5.2
2003-04-01 06:35:22 51°13.668 2°55.822 91.1 2.9 273 7.8
2003-04-01 06:35:27 51°13.668 2°55.816 90.3 3 273 5
2003-04-01 06:35:32 51°13.669 2°55.809 89.8 2.9 272 5
2003-04-01 06:35:37 51°13.669 2°55.802 89.4 2.9 272 -999
2003-04-01 06:35:43 51°13.668 2°55.795 89.4 2.9 270 -999
2003-04-01 06:35:48 51°13.668 2°55.789 89.2 2.8 270 5.1
2003-04-01 06:35:53 51°13.668 2°55.783 88.6 2.8 270 -999
2003-04-01 06:35:57 51°13.668 2°55.778 87.5 2.7 271 5.4
2003-04-01 06:36:01 51°13.669 2°55.774 86.1 2.5 271 7.8
2003-04-01 06:36:07 51°13.669 2°55.769 84.4 2.2 271 8
2003-04-01 06:36:12 51°13.668 2°55.766 82.4 1.9 271 7.9
2003-04-01 06:36:17 51°13.668 2°55.763 80.5 1.5 273 7.9
2003-04-01 06:36:21 51°13.668 2°55.761 78.6 1.2 275 7.8
2003-04-01 06:36:27 51°13.669 2°55.76 76.7 0.9 283 8
2003-04-01 06:36:32 51°13.669 2°55.759 73.7 0.6 297 8
2003-04-01 06:36:37 51°13.67 2°55.759 69.8 0.4 332 8.1
2003-04-01 06:36:41 51°13.671 2°55.759 65.7 0.5 4 8.1
2003-04-01 06:36:45 51°13.671 2°55.76 60.9 0.7 29 8.2
2003-04-01 06:36:52 51°13.673 2°55.762 55.9 0.9 36 8.4
2003-04-01 06:36:57 51°13.675 2°55.764 50.7 1.2 37 8.5
2003-04-01 06:37:01 51°13.676 2°55.765 45.5 1.4 32 9.1
2003-04-01 06:37:07 51°13.678 2°55.765 40.1 1.5 28 9.4
2003-04-01 06:37:12 51°13.68 2°55.767 35.2 1.5 25 9.9
2003-04-01 06:37:17 51°13.682 2°55.768 31.4 1.5 19 9.5
2003-04-01 06:37:21 51°13.684 2°55.769 28.6 1.5 17 9.8
2003-04-01 06:37:27 51°13.687 2°55.77 26.2 1.4 12 9.7
2003-04-01 06:37:32 51°13.689 2°55.77 23.8 1.3 9 9.9
2003-04-01 06:37:37 51°13.69 2°55.771 21.4 1.2 4 9.8
2003-04-01 06:37:42 51°13.691 2°55.77 19 1.1 1 9.7
2003-04-01 06:37:47 51°13.692 2°55.77 17 0.9 356 9.8
2003-04-01 06:37:52 51°13.693 2°55.769 15.6 0.8 353 9.9
2003-04-01 06:37:57 51°13.693 2°55.769 14.7 0.6 345 9.9
2003-04-01 06:38:01 51°13.693 2°55.769 14.5 0.4 338 9.9
2003-04-01 06:38:07 51°13.693 2°55.768 14.6 0.2 304 9.9
2003-04-01 06:38:12 51°13.692 2°55.768 15.2 0.2 248 9.9
2003-04-01 06:38:17 51°13.691 2°55.767 15.9 0.5 213 9.8
2003-04-01 06:38:21 51°13.69 2°55.767 16.7 0.6 207 9.9
2003-04-01 06:38:27 51°13.689 2°55.766 17.6 0.7 203 9.9
2003-04-01 06:38:32 51°13.688 2°55.764 18 0.6 209 10.1
2003-04-01 06:38:37 51°13.688 2°55.763 17.2 0.4 220 5.1
2003-04-01 06:38:41 51°13.689 2°55.764 14.5 0.2 275 5.4
2003-04-01 06:38:47 51°13.692 2°55.765 9.7 0.7 348 5.4
2003-04-01 06:38:52 51°13.694 2°55.764 3.3 1.3 351 9.9
2003-04-01 06:38:57 51°13.697 2°55.762 356.3 1.8 349 9.9
2003-04-01 06:39:01 51°13.699 2°55.761 349.8 2.1 346 9.9
2003-04-01 06:39:07 51°13.704 2°55.757 343.3 2.6 340 9.9
2003-04-01 06:39:12 51°13.709 2°55.75 338.6 3.1 333 9.9
2003-04-01 06:39:17 51°13.715 2°55.743 335.7 3.6 330 9.9
2003-04-01 06:39:21 51°13.719 2°55.737 333.6 3.9 329 9.8
2003-04-01 06:39:27 51°13.726 2°55.729 332.7 4.4 327 8.6
2003-04-01 06:39:32 51°13.731 2°55.725 332.3 4.6 327 8.2
2003-04-01 06:39:37 51°13.735 2°55.722 331.9 4.9 326 8.2
2003-04-01 06:39:42 51°13.74 2°55.717 331.9 5.1 326 8.2
2003-04-01 06:39:47 51°13.746 2°55.711 331.7 5.4 326 8.3
2003-04-01 06:39:52 51°13.754 2°55.704 331.5 5.6 325 8.3
2003-04-01 06:39:57 51°13.762 2°55.696 331.5 6 326 8.3
2003-04-01 06:40:02 51°13.769 2°55.689 331.6 6.3 326 8.1
2003-04-01 06:40:07 51°13.776 2°55.682 332.1 6.4 327 8.3
2003-04-01 06:40:11 51°13.781 2°55.676 332.4 6.5 328 8.4
2003-04-01 06:40:17 51°13.793 2°55.664 332.7 6.6 328 8.4
2003-04-01 06:40:21 51°13.8 2°55.659 333.1 6.7 328 8.4
2003-04-01 06:40:27 51°13.81 2°55.649 333.8 7 329 8.5
2003-04-01 06:40:32 51°13.82 2°55.641 334.4 7.2 329 8.3
2003-04-01 06:40:37 51°13.83 2°55.632 335.2 7.2 330 8.4
2003-04-01 06:40:41 51°13.838 2°55.626 336.3 7.3 331 8.6
2003-04-01 06:40:47 51°13.854 2°55.614 337.5 7.4 332 8.5
2003-04-01 06:40:52 51°13.864 2°55.607 338.2 7.5 333 8.4
2003-04-01 06:40:57 51°13.871 2°55.601 338.5 7.6 334 8.4
2003-04-01 06:41:01 51°13.878 2°55.596 338.9 7.7 334 8.4
2003-04-01 06:41:07 51°13.887 2°55.587 339.4 7.8 334 7.4
2003-04-01 06:41:12 51°13.889 2°55.581 339.7 7.9 334 8.4
2003-04-01 06:41:17 51°13.899 2°55.575 340.1 8.2 336 8.5
2003-04-01 06:41:21 51°13.908 2°55.571 340.7 8.2 337 8.5
2003-04-01 06:41:27 51°13.921 2°55.563 341.1 8.2 337 8.5
2003-04-01 06:41:32 51°13.931 2°55.556 341.2 8.1 337 8.4
2003-04-01 06:41:37 51°13.941 2°55.55 341.1 8.1 336 8.3
2003-04-01 06:41:41 51°13.949 2°55.545 340.7 8.1 336 8.4
2003-04-01 06:41:47 51°13.961 2°55.538 340.2 8.2 336 8.4
2003-04-01 06:41:52 51°13.97 2°55.53 340.2 8.2 336 8.3
2003-04-01 06:41:57 51°13.98 2°55.523 340.3 8.2 336 8.3
2003-04-01 06:42:01 51°13.988 2°55.517 339.6 8.2 335 8.3
2003-04-01 06:42:07 51°14 2°55.508 339.2 8.2 335 8.3
2003-04-01 06:42:11 51°14.008 2°55.502 339.4 8.3 335 8.2
2003-04-01 06:42:17 51°14.021 2°55.494 339.7 8.2 335 8.2
2003-04-01 06:42:22 51°14.031 2°55.487 339.6 8.2 335 8.1
2003-04-01 06:42:27 51°14.041 2°55.479 339.6 8.2 335 8.2
2003-04-01 06:42:31 51°14.049 2°55.472 339.3 8.2 335 7.9
2003-04-01 06:42:37 51°14.061 2°55.463 339.5 8.3 335 7.8
2003-04-01 06:42:41 51°14.07 2°55.456 339.7 8.3 335 7.3
2003-04-01 06:42:47 51°14.086 2°55.444 339.6 8.3 335 7
2003-04-01 06:42:52 51°14.098 2°55.434 339.3 8.2 335 8.2
2003-04-01 06:42:57 51°14.108 2°55.426 339.2 8.2 334 7.8
2003-04-01 06:43:01 51°14.117 2°55.418 339.4 8.3 335 8.2
2003-04-01 06:43:07 51°14.13 2°55.408 339.5 8.3 335 8.1
2003-04-01 06:43:12 51°14.14 2°55.401 338.7 8.4 334 8.2
2003-04-01 06:43:17 51°14.15 2°55.393 337.8 8.4 333 8
2003-04-01 06:43:22 51°14.159 2°55.386 337.4 8.3 333 8.3
2003-04-01 06:43:27 51°14.167 2°55.379 337 8.3 333 7.4
2003-04-01 06:43:32 51°14.177 2°55.371 336.7 8.3 332 8.1
2003-04-01 06:43:37 51°14.187 2°55.362 335.7 8.3 332 8.3
2003-04-01 06:43:42 51°14.196 2°55.353 334 8.3 331 8.3
2003-04-01 06:43:47 51°14.205 2°55.344 332.2 8.3 328 8.3
2003-04-01 06:43:52 51°14.214 2°55.333 328.9 8.4 326 8.3
2003-04-01 06:43:57 51°14.223 2°55.323 326.8 8.4 323 8
2003-04-01 06:44:01 51°14.23 2°55.314 325.1 8.3 322 8.3
2003-04-01 06:44:07 51°14.24 2°55.299 323.1 8.3 320 8.3
2003-04-01 06:44:12 51°14.249 2°55.287 321 8.3 319 8.4
2003-04-01 06:44:17 51°14.257 2°55.274 319.1 8.3 316 8.1
2003-04-01 06:44:21 51°14.263 2°55.263 317.1 8.3 314 8.4
2003-04-01 06:44:27 51°14.272 2°55.246 315.9 8.3 313 8.4
2003-04-01 06:44:32 51°14.28 2°55.232 315 8.3 312 8.5
2003-04-01 06:44:37 51°14.288 2°55.217 314.5 8.3 311 8.5
2003-04-01 06:44:41 51°14.294 2°55.206 314.3 8.3 311 8.5
2003-04-01 06:44:47 51°14.303 2°55.189 314.2 8.4 310 8.5
2003-04-01 06:44:52 51°14.311 2°55.175 314.2 8.3 310 8.6
2003-04-01 06:44:57 51°14.318 2°55.161 313.9 8.4 310 8.6
2003-04-01 06:45:01 51°14.324 2°55.15 313.4 8.4 310 8.7
2003-04-01 06:45:07 51°14.333 2°55.133 313.2 8.4 309 8.7
2003-04-01 06:45:12 51°14.34 2°55.118 312.9 8.3 309 8
2003-04-01 06:45:17 51°14.347 2°55.104 312.1 8.3 308 8.3
2003-04-01 06:45:21 51°14.353 2°55.092 311.5 8.3 308 8.6
2003-04-01 06:45:27 51°14.362 2°55.075 312 8.3 308 8.8
2003-04-01 06:45:32 51°14.369 2°55.061 313.5 8.4 308 9
2003-04-01 06:45:37 51°14.376 2°55.047 314.9 8.4 310 8.8
2003-04-01 06:45:41 51°14.383 2°55.035 317.1 8.4 311 8.9
2003-04-01 06:45:47 51°14.393 2°55.019 319.6 8.6 313 8.9
2003-04-01 06:45:52 51°14.402 2°55.005 321.8 8.8 314 8.8
2003-04-01 06:45:57 51°14.413 2°54.991 325.1 9.4 318 8.6
2003-04-01 06:46:01 51°14.422 2°54.98 328.7 9.8 320 8.3
2003-04-01 06:46:07 51°14.436 2°54.965 332.1 10.2 324 7.6
2003-04-01 06:46:12 51°14.449 2°54.952 334.9 10.5 326 8.3
2003-04-01 06:46:17 51°14.463 2°54.939 336.1 10.8 328 8.3
2003-04-01 06:46:21 51°14.474 2°54.929 336.6 11 328 8.1
2003-04-01 06:46:27 51°14.489 2°54.913 336.3 11.2 328 8
2003-04-01 06:46:32 51°14.502 2°54.898 335.5 11.3 327 7.8
2003-04-01 06:46:37 51°14.516 2°54.883 335.5 11.4 325 8.1
2003-04-01 06:46:41 51°14.526 2°54.871 335.2 11.4 325 8
2003-04-01 06:46:47 51°14.542 2°54.853 334.7 11.6 325 8.1
2003-04-01 06:46:52 51°14.555 2°54.838 334.2 11.7 325 8.1
2003-04-01 06:46:57 51°14.568 2°54.823 334.2 11.9 324 8
2003-04-01 06:47:01 51°14.579 2°54.81 334.3 12 324 8
2003-04-01 06:47:07 51°14.595 2°54.792 334.6 12 325 7.9
2003-04-01 06:47:12 51°14.609 2°54.776 335 12.1 325 7.8
2003-04-01 06:47:17 51°14.623 2°54.761 335.1 12.1 325 7.8
2003-04-01 06:47:22 51°14.637 2°54.746 335.2 12.1 325 7.7
2003-04-01 06:47:27 51°14.651 2°54.731 334.8 12.2 325 7.5
2003-04-01 06:47:32 51°14.664 2°54.716 334.5 12.2 325 7.6
2003-04-01 06:47:37 51°14.678 2°54.7 334.3 12.2 324 7.7
2003-04-01 06:47:41 51°14.689 2°54.688 334.4 12.2 324 11.6
2003-04-01 06:47:47 51°14.706 2°54.669 334.6 12.2 325 11.5
2003-04-01 06:47:51 51°14.717 2°54.656 334.9 12.2 325 11.5
2003-04-01 06:47:57 51°14.733 2°54.637 335 12.2 325 11.8
2003-04-01 06:48:01 51°14.744 2°54.625 334.8 12.2 325 11.5
2003-04-01 06:48:07 51°14.761 2°54.607 335 12.3 325 11.4
2003-04-01 06:48:12 51°14.775 2°54.591 334.8 12.3 326 11.2
2003-04-01 06:48:17 51°14.788 2°54.576 334.7 12.3 325 11.5
2003-04-01 06:48:21 51°14.8 2°54.564 334.7 12.3 326 11.4
2003-04-01 06:48:27 51°14.816 2°54.545 335.1 12.2 326 11.4
2003-04-01 06:48:32 51°14.83 2°54.53 335.6 12.3 326 11.4
2003-04-01 06:48:37 51°14.844 2°54.516 336.1 12.3 327 11.4
2003-04-01 06:48:41 51°14.856 2°54.504 336.3 12.3 328 11.1
2003-04-01 06:48:47 51°14.873 2°54.487 336.5 12.3 328 11.3
2003-04-01 06:48:52 51°14.887 2°54.473 335.9 12.3 328 11.4
2003-04-01 06:48:57 51°14.901 2°54.458 335.4 12.3 327 11
2003-04-01 06:49:01 51°14.913 2°54.447 334.8 12.3 327 10.6
2003-04-01 06:49:07 51°14.929 2°54.429 334.1 12.1 326 7.1
2003-04-01 06:49:12 51°14.943 2°54.413 333.8 12.1 325 7.1
2003-04-01 06:49:17 51°14.957 2°54.398 333.6 12.1 326 7
2003-04-01 06:49:22 51°14.971 2°54.382 333.6 12.1 325 6.9
2003-04-01 06:49:27 51°14.985 2°54.366 333.6 12 325 6.3
2003-04-01 06:49:32 51°14.999 2°54.351 333.8 12 325 6.8
2003-04-01 06:49:37 51°15.013 2°54.336 333.8 12 325 6.8
2003-04-01 06:49:41 51°15.024 2°54.324 333.8 12 325 6.4
2003-04-01 06:49:47 51°15.04 2°54.306 333.6 12 325 6.8
2003-04-01 06:49:52 51°15.054 2°54.291 333.3 12 325 6.3
2003-04-01 06:49:57 51°15.067 2°54.276 333.1 11.9 325 6.9
2003-04-01 06:50:01 51°15.077 2°54.263 333 12 324 6.9
2003-04-01 06:50:07 51°15.092 2°54.245 333.1 12 325 6.9
2003-04-01 06:50:12 51°15.107 2°54.23 333.8 12.1 325 6.4
2003-04-01 06:50:17 51°15.121 2°54.216 334.1 12.1 326 7.1
2003-04-01 06:50:21 51°15.132 2°54.204 334.4 12.1 326 7.1
2003-04-01 06:50:27 51°15.15 2°54.186 334.8 12.2 326 7.2
2003-04-01 06:50:32 51°15.164 2°54.172 335.4 12.2 327 7.1
2003-04-01 06:50:37 51°15.18 2°54.158 336.1 12.2 328 7
2003-04-01 06:50:42 51°15.192 2°54.143 336.7 12.3 328 7.3
2003-04-01 06:50:47 51°15.206 2°54.129 337.1 12.2 329 7.4
2003-04-01 06:50:51 51°15.217 2°54.117 337.2 12.3 329 7.4
2003-04-01 06:50:57 51°15.235 2°54.1 336.8 12.4 328 7.5
2003-04-01 06:51:02 51°15.249 2°54.084 336.3 12.4 328 5.6
2003-04-01 06:51:07 51°15.263 2°54.069 335.7 12.4 327 7.6
2003-04-01 06:51:12 51°15.278 2°54.054 334.8 12.4 326 7.7
2003-04-01 06:51:17 51°15.292 2°54.038 334.5 12.5 326 -999
2003-04-01 06:51:22 51°15.306 2°54.022 334.5 12.5 326 7.9
2003-04-01 06:51:27 51°15.321 2°54.006 334.2 12.6 326 7.9
2003-04-01 06:51:32 51°15.336 2°53.991 334.6 12.6 326 8
2003-04-01 06:51:37 51°15.35 2°53.975 335 12.6 326 8.1
2003-04-01 06:51:42 51°15.364 2°53.96 335.7 12.6 326 7.8
2003-04-01 06:51:47 51°15.379 2°53.944 336.1 12.6 327 8.1
2003-04-01 06:51:52 51°15.394 2°53.929 336.2 12.7 327 8.1
2003-04-01 06:51:57 51°15.408 2°53.914 336.2 12.7 327 8.2
2003-04-01 06:52:01 51°15.42 2°53.901 336 12.8 327 8.3
2003-04-01 06:52:07 51°15.438 2°53.882 335.8 12.9 327 8.3
2003-04-01 06:52:11 51°15.45 2°53.87 336.5 12.9 327 8.4
2003-04-01 06:52:17 51°15.469 2°53.852 337 13 328 8.5
2003-04-01 06:52:21 51°15.481 2°53.84 337.6 13 328 8.5
2003-04-01 06:52:27 51°15.499 2°53.821 337.5 13.1 328 8.5
2003-04-01 06:52:32 51°15.515 2°53.806 337.6 13.2 328 8.6
2003-04-01 06:52:37 51°15.531 2°53.79 337.5 13.5 329 8.7
2003-04-01 06:52:41 51°15.543 2°53.778 337.7 13.5 329 8.8
2003-04-01 06:52:47 51°15.561 2°53.759 337.9 13.4 328 8.9
2003-04-01 06:52:52 51°15.577 2°53.743 337.9 13.4 328 8.9
2003-04-01 06:52:57 51°15.592 2°53.727 337.7 13.6 328 9
2003-04-01 06:53:01 51°15.606 2°53.715 337.4 13.7 328 9.1
2003-04-01 06:53:07 51°15.626 2°53.695 337.5 13.8 328 9.1
2003-04-01 06:53:12 51°15.642 2°53.678 337 13.7 328 9.2
2003-04-01 06:53:17 51°15.657 2°53.662 337 13.8 327 9.2
2003-04-01 06:53:21 51°15.67 2°53.649 337.1 13.8 328 9.4
2003-04-01 06:53:27 51°15.689 2°53.629 337.5 13.9 328 9.4
2003-04-01 06:53:31 51°15.702 2°53.616 337.2 13.9 328 9.4
2003-04-01 06:53:37 51°15.722 2°53.596 337.5 13.9 327 9.5
2003-04-01 06:53:42 51°15.738 2°53.58 337.5 13.9 328 9.6
2003-04-01 06:53:47 51°15.755 2°53.564 337.4 14 327 9.6
2003-04-01 06:53:52 51°15.772 2°53.547 337.4 14 328 9.7
2003-04-01 06:53:57 51°15.789 2°53.531 337.2 14.1 328 9.8
2003-04-01 06:54:02 51°15.805 2°53.514 337.6 14.1 328 9.9
2003-04-01 06:54:07 51°15.822 2°53.497 337.5 14.1 328 9.8
2003-04-01 06:54:12 51°15.839 2°53.481 337.5 14.1 328 9.8
2003-04-01 06:54:17 51°15.855 2°53.464 337.3 14.3 328 9.8
2003-04-01 06:54:21 51°15.869 2°53.452 337.6 14.2 328 10.1
2003-04-01 06:54:27 51°15.888 2°53.432 337.2 14.1 328 10
2003-04-01 06:54:32 51°15.905 2°53.416 338.4 14.1 328 10.1
2003-04-01 06:54:38 51°15.924 2°53.396 339.1 14.1 329 10.2
2003-04-01 06:54:41 51°15.934 2°53.388 339.7 11.6 329 10.2
2003-04-01 06:54:47 51°15.955 2°53.369 340.3 11.2 330 10.3
2003-04-01 06:54:52 51°15.972 2°53.354 340.4 10.4 331 10.2
2003-04-01 06:54:57 51°15.99 2°53.34 340.8 11.3 331 10.3
2003-04-01 06:55:01 51°16.003 2°53.327 340.8 12.5 331 10.2
2003-04-01 06:55:07 51°16.024 2°53.31 340.9 13.7 331 10.3
2003-04-01 06:55:13 51°16.045 2°53.292 340.8 13.4 331 10.4
2003-04-01 06:55:17 51°16.059 2°53.279 340.9 11.8 331 10.4
2003-04-01 06:55:21 51°16.072 2°53.267 340.9 11.5 331 10.4
2003-04-01 06:55:27 51°16.092 2°53.249 340.8 13.3 331 10.5
2003-04-01 06:55:32 51°16.109 2°53.234 340.5 14 331 10.6
2003-04-01 06:55:37 51°16.127 2°53.22 340.8 14.2 331 10.7
2003-04-01 06:55:41 51°16.14 2°53.208 340.8 14.2 332 10.6
2003-04-01 06:55:47 51°16.161 2°53.19 340.8 14.2 332 10.6
2003-04-01 06:55:52 51°16.178 2°53.175 340.7 14.1 332 10.8
2003-04-01 06:55:57 51°16.195 2°53.16 340.4 14.1 331 10.7
2003-04-01 06:56:01 51°16.209 2°53.148 340.6 13.3 331 10.8
2003-04-01 06:56:07 51°16.23 2°53.13 340.6 12.8 331 10.8
2003-04-01 06:56:12 51°16.247 2°53.115 340.5 13.5 331 10.8
2003-04-01 06:56:17 51°16.264 2°53.1 340.3 14.1 331 10.9
2003-04-01 06:56:22 51°16.281 2°53.085 340.4 14.2 331 10.8
2003-04-01 06:56:27 51°16.298 2°53.069 340.4 14.2 331 10.7
2003-04-01 06:56:32 51°16.315 2°53.055 340.8 14.1 331 10.9
2003-04-01 06:56:37 51°16.332 2°53.039 340.2 14.1 331 10.8
2003-04-01 06:56:41 51°16.345 2°53.028 341 14 331 10.9
2003-04-01 06:56:47 51°16.365 2°53.01 341.7 14 332 10.8
2003-04-01 06:56:53 51°16.386 2°52.994 342.5 13.2 332 10.7
2003-04-01 06:56:57 51°16.401 2°52.983 342.6 11.1 333 10.7
2003-04-01 06:57:01 51°16.414 2°52.971 342.3 11.9 333 10.7
2003-04-01 06:57:07 51°16.435 2°52.954 342.5 13.4 333 10.6
2003-04-01 06:57:12 51°16.452 2°52.94 342.3 14 333 10.7
2003-04-01 06:57:17 51°16.469 2°52.926 342.5 14.1 333 10.5
2003-04-01 06:57:21 51°16.483 2°52.915 342.5 14 333 10.4
2003-04-01 06:57:27 51°16.503 2°52.898 342.5 14 333 10.4
2003-04-01 06:57:32 51°16.52 2°52.884 342.4 14 333 10.3
2003-04-01 06:57:37 51°16.538 2°52.871 342.7 13.9 333 10.3
2003-04-01 06:57:42 51°16.555 2°52.857 342.7 13.9 333 10
2003-04-01 06:57:47 51°16.572 2°52.843 342.6 13.9 334 10
2003-04-01 06:57:51 51°16.586 2°52.833 343.1 13.8 334 9.9
2003-04-01 06:57:57 51°16.607 2°52.817 343.1 13.8 335 9.8
2003-04-01 06:58:02 51°16.625 2°52.804 343.1 13.8 335 9.8
2003-04-01 06:58:07 51°16.642 2°52.791 343 13.7 335 9.7
2003-04-01 06:58:12 51°16.66 2°52.779 343 13.7 335 9.2
2003-04-01 06:58:17 51°16.677 2°52.766 342.7 13.7 335 9.4
2003-04-01 06:58:22 51°16.694 2°52.753 342.5 13.7 335 9.2
2003-04-01 06:58:27 51°16.711 2°52.74 342.2 13.6 334 9
2003-04-01 06:58:32 51°16.728 2°52.727 342.2 13.6 334 8.7
2003-04-01 06:58:37 51°16.744 2°52.714 342.3 13.5 335 8.4
2003-04-01 06:58:42 51°16.761 2°52.701 342.2 12 335 8
2003-04-01 06:58:47 51°16.777 2°52.689 342.8 12.3 335 8
2003-04-01 06:58:52 51°16.793 2°52.676 342.3 12.8 335 8.2
2003-04-01 06:58:57 51°16.809 2°52.665 342.3 13 335 8.2
2003-04-01 06:59:01 51°16.822 2°52.654 341.8 13 334 8
2003-04-01 06:59:07 51°16.841 2°52.64 342.5 12.3 335 7.8
2003-04-01 06:59:11 51°16.854 2°52.629 342 11.7 334 7.8
2003-04-01 06:59:17 51°16.874 2°52.614 341.5 11.3 334 7.9
2003-04-01 06:59:21 51°16.886 2°52.603 340.9 11.5 333 8
2003-04-01 06:59:27 51°16.905 2°52.587 340.3 12.5 333 8.3
2003-04-01 06:59:32 51°16.921 2°52.574 340.2 12.8 332 8.3
2003-04-01 06:59:37 51°16.938 2°52.56 340.1 11.9 332 8.3
2003-04-01 06:59:41 51°16.95 2°52.549 340.9 9 332 8.3
2003-04-01 06:59:47 51°16.97 2°52.533 341.2 9.1 333 8.1
2003-04-01 06:59:52 51°16.987 2°52.521 341.8 11.9 333 7.9
2003-04-01 06:59:57 51°17.003 2°52.508 342.5 13.3 334 7.9
2003-04-01 07:00:02 51°17.019 2°52.496 343 13.4 334 7.9
2003-04-01 07:00:07 51°17.036 2°52.484 344 13.2 335 8
2003-04-01 07:00:12 51°17.052 2°52.473 344.6 13.1 336 8.1
2003-04-01 07:00:17 51°17.069 2°52.461 345.3 13 336 8
2003-04-01 07:00:21 51°17.082 2°52.452 344.8 13.1 337 7.9
2003-04-01 07:00:27 51°17.102 2°52.438 344.5 13.1 336 8.1
2003-04-01 07:00:32 51°17.119 2°52.426 344 13.1 336 8.1
2003-04-01 07:00:37 51°17.136 2°52.413 342.7 13.2 335 8.2
2003-04-01 07:00:42 51°17.152 2°52.4 342.7 13.2 334 8.2
2003-04-01 07:00:47 51°17.168 2°52.387 341.7 13.2 334 8.3
2003-04-01 07:00:52 51°17.184 2°52.373 341.2 13.3 333 8.4
2003-04-01 07:00:57 51°17.2 2°52.359 341.1 13.3 332 8.4
2003-04-01 07:01:01 51°17.213 2°52.348 340.9 13.4 332 8.6
2003-04-01 07:01:07 51°17.233 2°52.332 341.4 13.4 333 8.6
2003-04-01 07:01:12 51°17.249 2°52.318 341.3 13.4 333 8.5
2003-04-01 07:01:17 51°17.265 2°52.305 341.6 13.4 333 8.7
2003-04-01 07:01:21 51°17.278 2°52.294 341.5 13.4 333 8.6
2003-04-01 07:01:27 51°17.298 2°52.278 342.3 13.5 333 8.8
2003-04-01 07:01:32 51°17.315 2°52.265 342.6 13.5 334 8.8
2003-04-01 07:01:37 51°17.332 2°52.252 343.3 13.5 334 8.9
2003-04-01 07:01:41 51°17.345 2°52.242 343.2 13.5 335 8.8
2003-04-01 07:01:47 51°17.365 2°52.228 343.8 13.5 335 8.7
2003-04-01 07:01:52 51°17.382 2°52.214 343.3 13.6 335 8.7
2003-04-01 07:01:57 51°17.399 2°52.202 343.5 13.5 335 8.8
2003-04-01 07:02:02 51°17.415 2°52.189 343.6 13.4 334 8.7
2003-04-01 07:02:07 51°17.432 2°52.176 343.3 13.5 335 8.9
2003-04-01 07:02:12 51°17.449 2°52.164 343.8 13.6 335 8.7
2003-04-01 07:02:17 51°17.465 2°52.151 343.7 13.5 335 8.9
2003-04-01 07:02:21 51°17.479 2°52.141 343.8 13.5 335 8.8
2003-04-01 07:02:27 51°17.499 2°52.126 343.9 13.5 335 8.9
2003-04-01 07:02:32 51°17.516 2°52.113 343.3 13.6 335 9
2003-04-01 07:02:37 51°17.532 2°52.1 343.1 13.5 334 8.9
2003-04-01 07:02:42 51°17.549 2°52.087 343.3 13.5 334 8.9
2003-04-01 07:02:47 51°17.566 2°52.075 343.8 13.5 335 8.8
2003-04-01 07:02:52 51°17.584 2°52.062 344.1 13.5 335 8.8
2003-04-01 07:02:57 51°17.601 2°52.05 344.1 13.5 336 8.8
2003-04-01 07:03:01 51°17.614 2°52.04 344.4 13.5 335 8.6
2003-04-01 07:03:07 51°17.634 2°52.025 344.1 13.5 335 8.8
2003-04-01 07:03:12 51°17.651 2°52.013 344 13.4 335 8.9
2003-04-01 07:03:17 51°17.667 2°52 343.6 13.4 335 8.7
2003-04-01 07:03:21 51°17.68 2°51.99 343.5 13.4 334 8.7
2003-04-01 07:03:27 51°17.7 2°51.974 343.1 13.4 334 8.7
2003-04-01 07:03:32 51°17.718 2°51.961 343.1 13.4 334 8.7
2003-04-01 07:03:37 51°17.734 2°51.948 342.8 13.4 334 8.7
2003-04-01 07:03:41 51°17.748 2°51.938 343 13.4 334 8.6
2003-04-01 07:03:47 51°17.767 2°51.922 343.3 13.5 334 8.7
2003-04-01 07:03:52 51°17.784 2°51.91 343.6 13.4 335 8.7
2003-04-01 07:03:57 51°17.8 2°51.897 343.4 13.4 334 8.6
2003-04-01 07:04:01 51°17.814 2°51.887 343.3 13.3 334 8.5
2003-04-01 07:04:07 51°17.835 2°51.872 343.4 13.4 335 8.6
2003-04-01 07:04:12 51°17.851 2°51.859 343.4 13.3 334 8.6
2003-04-01 07:04:17 51°17.867 2°51.847 343.3 13.4 335 8.6
2003-04-01 07:04:21 51°17.88 2°51.836 343.3 13.4 334 8.8
2003-04-01 07:04:27 51°17.899 2°51.821 343.8 13.3 335 8.7
2003-04-01 07:04:32 51°17.916 2°51.808 343.2 13.4 334 8.7
2003-04-01 07:04:37 51°17.933 2°51.795 343.6 13.4 334 8.8
2003-04-01 07:04:41 51°17.946 2°51.785 343.3 13.4 334 8.8
2003-04-01 07:04:47 51°17.966 2°51.77 343.9 11.9 334 8.9
2003-04-01 07:04:52 51°17.983 2°51.757 343.8 12.1 334 9
2003-04-01 07:04:57 51°17.999 2°51.745 344 13.2 335 9
2003-04-01 07:05:01 51°18.012 2°51.734 343.9 13.5 335 9.1
2003-04-01 07:05:07 51°18.032 2°51.719 343.7 13.5 335 9.1
2003-04-01 07:05:12 51°18.049 2°51.707 343.8 13.5 335 9.1
2003-04-01 07:05:17 51°18.066 2°51.694 343.6 13.6 335 9.2
2003-04-01 07:05:21 51°18.079 2°51.683 343.1 13.6 334 9.4
2003-04-01 07:05:27 51°18.099 2°51.667 343.1 13.6 334 9.4
2003-04-01 07:05:32 51°18.116 2°51.654 343.3 13.6 334 9.6
2003-04-01 07:05:37 51°18.134 2°51.64 343.2 13.7 334 9.6
2003-04-01 07:05:42 51°18.15 2°51.626 342.6 13.8 333 9.7
2003-04-01 07:05:47 51°18.168 2°51.613 342.8 13.8 334 9.9
2003-04-01 07:05:52 51°18.185 2°51.6 343.1 13.7 334 10
2003-04-01 07:05:57 51°18.202 2°51.586 343.1 13.8 334 10
2003-04-01 07:06:01 51°18.216 2°51.576 343.8 13.9 334 10.2
2003-04-01 07:06:07 51°18.237 2°51.559 343.9 13.9 334 10.3
2003-04-01 07:06:12 51°18.254 2°51.546 343.3 13.8 334 10.3
2003-04-01 07:06:17 51°18.271 2°51.533 343.7 13.8 334 10.5
2003-04-01 07:06:21 51°18.285 2°51.522 343.6 13.9 334 10.7
2003-04-01 07:06:27 51°18.305 2°51.506 343 13.8 334 10.7
2003-04-01 07:06:32 51°18.322 2°51.492 343.3 13.8 334 10.8
2003-04-01 07:06:37 51°18.339 2°51.479 343.2 13.8 333 10.9
2003-04-01 07:06:41 51°18.352 2°51.468 343.3 13.8 334 11
2003-04-01 07:06:47 51°18.373 2°51.452 343.3 13.9 334 11.2
2003-04-01 07:06:52 51°18.39 2°51.438 344 13.9 334 11.3
2003-04-01 07:06:57 51°18.407 2°51.424 343.2 13.9 334 11.4
2003-04-01 07:07:01 51°18.421 2°51.413 342.9 13.9 333 11.6
2003-04-01 07:07:07 51°18.441 2°51.397 343.2 13.9 333 11.6
2003-04-01 07:07:12 51°18.458 2°51.384 343.3 13.9 333 11.8
2003-04-01 07:07:17 51°18.476 2°51.37 343.3 13.9 334 11.9
2003-04-01 07:07:21 51°18.489 2°51.359 343.3 14 334 12
2003-04-01 07:07:27 51°18.51 2°51.343 343.6 14 334 12.1
2003-04-01 07:07:32 51°18.527 2°51.329 343.2 14 334 12.2
2003-04-01 07:07:37 51°18.545 2°51.315 343.8 14.1 334 12.3
2003-04-01 07:07:41 51°18.559 2°51.305 343.9 14.1 334 12.3
2003-04-01 07:07:47 51°18.579 2°51.288 343.8 14 334 12.5
2003-04-01 07:07:52 51°18.596 2°51.274 343.3 14 334 12.5
2003-04-01 07:07:57 51°18.614 2°51.26 343.4 14 334 12.6
2003-04-01 07:08:01 51°18.628 2°51.249 343.7 14 334 12.6
2003-04-01 07:08:07 51°18.649 2°51.232 343.5 14 333 12.6
2003-04-01 07:08:12 51°18.666 2°51.218 343.3 13.9 333 12.7
2003-04-01 07:08:17 51°18.684 2°51.203 343 13.9 333 12.7
2003-04-01 07:08:21 51°18.697 2°51.192 343 13.9 332 12.8
2003-04-01 07:08:27 51°18.718 2°51.175 343.3 14 333 12.9
2003-04-01 07:08:32 51°18.735 2°51.162 343.3 14 333 12.9
2003-04-01 07:08:37 51°18.753 2°51.148 343.5 14 333 13.1
2003-04-01 07:08:41 51°18.767 2°51.136 343.3 14 333 13.1
2003-04-01 07:08:47 51°18.788 2°51.12 343.3 14 333 13.1
2003-04-01 07:08:51 51°18.801 2°51.108 343.2 14 333 13.2
2003-04-01 07:08:57 51°18.821 2°51.092 343.3 13.9 333 13.3
2003-04-01 07:09:02 51°18.838 2°51.078 342.9 13.9 333 13.3
2003-04-01 07:09:07 51°18.854 2°51.064 343.3 13.9 333 13.5
2003-04-01 07:09:12 51°18.871 2°51.049 343.5 13.8 333 13.4
2003-04-01 07:09:17 51°18.889 2°51.036 343.7 13.9 333 13.5
2003-04-01 07:09:22 51°18.906 2°51.021 343.3 14 333 13.5
2003-04-01 07:09:27 51°18.924 2°51.008 343.3 13.9 333 13.3
2003-04-01 07:09:32 51°18.941 2°50.994 343.9 13.9 333 13.3
2003-04-01 07:09:37 51°18.958 2°50.98 343.3 13.9 333 13.4
2003-04-01 07:09:41 51°18.972 2°50.969 343.5 14 334 13.5
2003-04-01 07:09:47 51°18.993 2°50.952 343.1 14 334 13.5
2003-04-01 07:09:52 51°19.01 2°50.939 343.4 14 333 13.6
2003-04-01 07:09:57 51°19.027 2°50.925 342.9 13.9 333 13.5
2003-04-01 07:10:01 51°19.039 2°50.912 340.1 13.9 332 13.6
2003-04-01 07:10:07 51°19.059 2°50.893 338.9 14 329 13.5
2003-04-01 07:10:12 51°19.076 2°50.875 337.5 14.1 329 13.4
2003-04-01 07:10:17 51°19.091 2°50.858 336.5 14.1 327 13.5
2003-04-01 07:10:22 51°19.107 2°50.84 335.4 14 326 13.4
2003-04-01 07:10:27 51°19.122 2°50.822 334.7 14 325 13.4
2003-04-01 07:10:32 51°19.138 2°50.804 334.2 14 325 13.2
2003-04-01 07:10:37 51°19.153 2°50.785 334 14 323 13.1
2003-04-01 07:10:41 51°19.166 2°50.77 333.5 14 323 13
2003-04-01 07:10:47 51°19.184 2°50.747 333.5 14 323 13
2003-04-01 07:10:52 51°19.2 2°50.729 333.8 14 323 13
2003-04-01 07:10:57 51°19.216 2°50.71 333.2 14 323 13
2003-04-01 07:11:01 51°19.229 2°50.695 333.8 14.2 322 12.7
2003-04-01 07:11:07 51°19.247 2°50.673 333.6 14.2 323 12.5
2003-04-01 07:11:11 51°19.259 2°50.658 333.7 14.1 323 12.4
2003-04-01 07:11:17 51°19.278 2°50.636 333.8 14 323 12.1
2003-04-01 07:11:21 51°19.29 2°50.621 334 14 323 11.7
2003-04-01 07:11:27 51°19.308 2°50.599 333.8 13.9 323 11.5
2003-04-01 07:11:32 51°19.324 2°50.582 334.2 13.9 323 11.5
2003-04-01 07:11:37 51°19.339 2°50.563 333.9 13.9 324 11.4
2003-04-01 07:11:41 51°19.352 2°50.549 334.4 13.9 324 11.3
2003-04-01 07:11:47 51°19.371 2°50.527 333.8 13.9 324 11.2
2003-04-01 07:11:52 51°19.386 2°50.509 334.2 14 324 11.2
2003-04-01 07:11:57 51°19.402 2°50.491 333.8 14.1 324 11
2003-04-01 07:12:02 51°19.418 2°50.473 333.9 14.1 324 10.9
2003-04-01 07:12:07 51°19.434 2°50.454 333.8 14 324 10.6
2003-04-01 07:12:11 51°19.446 2°50.44 333.6 14 324 10.1
2003-04-01 07:12:17 51°19.465 2°50.418 333.8 13.9 324 9.8
2003-04-01 07:12:21 51°19.478 2°50.404 333.8 13.9 324 10.1
2003-04-01 07:12:27 51°19.496 2°50.382 333.8 13.8 323 9.7
2003-04-01 07:12:32 51°19.511 2°50.364 334 13.7 324 10
2003-04-01 07:12:37 51°19.527 2°50.346 334.2 13.9 324 10.1
2003-04-01 07:12:42 51°19.542 2°50.327 334 14 324 10.5
2003-04-01 07:12:47 51°19.558 2°50.309 333.8 14.1 324 10.6
2003-04-01 07:12:52 51°19.574 2°50.291 334.1 14.1 324 10.8
2003-04-01 07:12:57 51°19.59 2°50.273 334.1 14.1 324 11
2003-04-01 07:13:01 51°19.602 2°50.258 334 14.1 324 11.1
2003-04-01 07:13:07 51°19.622 2°50.236 334.4 14.2 324 11.4
2003-04-01 07:13:12 51°19.639 2°50.217 334.3 14.3 325 11.6
2003-04-01 07:13:17 51°19.655 2°50.2 334.5 14.3 325 11.8
2003-04-01 07:13:21 51°19.667 2°50.185 333.3 14.2 324 11.9
2003-04-01 07:13:27 51°19.684 2°50.16 330 14.2 322 12.3
2003-04-01 07:13:32 51°19.699 2°50.138 326.9 14.3 319 12.5
2003-04-01 07:13:37 51°19.713 2°50.115 324.4 14.4 316 12.9
2003-04-01 07:13:41 51°19.723 2°50.095 319.4 14.5 314 13.1
2003-04-01 07:13:47 51°19.737 2°50.064 314.6 14.6 309 13.3
2003-04-01 07:13:52 51°19.747 2°50.037 312.4 14.6 306 13.4
2003-04-01 07:13:57 51°19.755 2°50.008 308.2 14.6 303 13.6
2003-04-01 07:14:01 51°19.761 2°49.984 303.2 14.6 299 13.7
2003-04-01 07:14:07 51°19.769 2°49.947 298 14.5 293 13.8
2003-04-01 07:14:12 51°19.775 2°49.916 295.3 14.6 288 13.8
2003-04-01 07:14:17 51°19.78 2°49.885 292.7 14.7 286 14
2003-04-01 07:14:21 51°19.784 2°49.86 290.3 14.7 285 13.9
2003-04-01 07:14:27 51°19.789 2°49.821 289.4 14.7 283 13.8
2003-04-01 07:14:32 51°19.792 2°49.789 286.9 14.7 281 14.1
2003-04-01 07:14:37 51°19.794 2°49.756 283.5 14.8 278 14.2
2003-04-01 07:14:41 51°19.795 2°49.729 281.6 14.8 276 14.6
2003-04-01 07:14:47 51°19.797 2°49.69 279.6 14.9 275 14.8
2003-04-01 07:14:52 51°19.797 2°49.657 278.2 14.9 273 15
2003-04-01 07:14:57 51°19.798 2°49.624 277.2 14.9 272 15.2
2003-04-01 07:15:01 51°19.798 2°49.597 276 14.9 271 15.3
2003-04-01 07:15:07 51°19.798 2°49.557 275.8 15 270 15.5
2003-04-01 07:15:11 51°19.798 2°49.531 274.9 15 270 15.6
2003-04-01 07:15:17 51°19.797 2°49.491 274.3 15 269 15.8
2003-04-01 07:15:21 51°19.796 2°49.465 274.3 15 269 16
2003-04-01 07:15:27 51°19.795 2°49.425 273.8 15 268 15.9
2003-04-01 07:15:32 51°19.795 2°49.391 274 15.1 268 16.1
2003-04-01 07:15:37 51°19.794 2°49.358 273.6 15.1 268 16.3
2003-04-01 07:15:41 51°19.793 2°49.331 273.7 15.1 268 16.5
2003-04-01 07:15:47 51°19.793 2°49.291 273.5 15.1 268 16.7
2003-04-01 07:15:52 51°19.792 2°49.258 273.3 15.1 268 16.8
2003-04-01 07:15:57 51°19.791 2°49.225 273.7 15.1 268 17
2003-04-01 07:16:01 51°19.79 2°49.198 273.2 15 268 17.1
2003-04-01 07:16:07 51°19.79 2°49.158 273.8 15 268 17.2
2003-04-01 07:16:12 51°19.789 2°49.125 273.6 15 268 17.5
2003-04-01 07:16:17 51°19.789 2°49.092 273.9 15.1 268 17.6
2003-04-01 07:16:21 51°19.788 2°49.065 273.8 15.1 268 17.6
2003-04-01 07:16:27 51°19.787 2°49.025 273.8 15.1 268 17.8
2003-04-01 07:16:32 51°19.786 2°48.991 274 15.1 268 18
2003-04-01 07:16:37 51°19.786 2°48.958 273.6 15.1 268 18.3
2003-04-01 07:16:42 51°19.785 2°48.925 273.7 15.1 268 18.4
2003-04-01 07:16:47 51°19.784 2°48.891 274 15.1 268 18.4
2003-04-01 07:16:52 51°19.783 2°48.858 273.7 15.1 268 18.6
2003-04-01 07:16:57 51°19.782 2°48.825 273.8 15.1 268 18.8
2003-04-01 07:17:02 51°19.781 2°48.791 274.1 15.1 268 18.9
2003-04-01 07:17:07 51°19.781 2°48.758 273.8 15.1 268 19.1
2003-04-01 07:17:12 51°19.78 2°48.724 274 15.1 268 19.3
2003-04-01 07:17:17 51°19.78 2°48.691 274.1 15.1 268 19.4
2003-04-01 07:17:21 51°19.78 2°48.664 274.1 15.1 268 19.6
2003-04-01 07:17:27 51°19.779 2°48.624 273.4 15.1 268 19.8
2003-04-01 07:17:32 51°19.778 2°48.591 273.4 15.1 268 20
2003-04-01 07:17:37 51°19.777 2°48.558 273.7 15.1 268 20.1
2003-04-01 07:17:41 51°19.776 2°48.531 274 15.1 268 20.2
2003-04-01 07:17:47 51°19.775 2°48.491 273.8 15.1 268 20.4
2003-04-01 07:17:51 51°19.774 2°48.464 273.6 15.1 268 20.5
2003-04-01 07:17:57 51°19.773 2°48.424 273.9 15.1 268 20.5
2003-04-01 07:18:01 51°19.773 2°48.397 274.1 15.1 268 20.6
2003-04-01 07:18:07 51°19.772 2°48.357 274.2 15.1 268 20.7
2003-04-01 07:18:12 51°19.771 2°48.324 274 15.1 268 20.8
2003-04-01 07:18:17 51°19.77 2°48.29 273.8 15.1 268 20.8
2003-04-01 07:18:21 51°19.77 2°48.264 274.2 15.1 268 20.8
2003-04-01 07:18:27 51°19.769 2°48.224 273.9 15.1 268 20.9
2003-04-01 07:18:31 51°19.768 2°48.198 273.6 15 268 21
2003-04-01 07:18:37 51°19.767 2°48.158 274 15 268 21.1
2003-04-01 07:18:41 51°19.766 2°48.132 274.1 15 268 21.1
2003-04-01 07:18:47 51°19.766 2°48.092 273.9 15 268 21.1
2003-04-01 07:18:52 51°19.765 2°48.059 274.3 15 268 21.2
2003-04-01 07:18:57 51°19.764 2°48.025 274.3 15 269 21.2
2003-04-01 07:19:01 51°19.763 2°47.999 273.8 15 268 21.2
2003-04-01 07:19:07 51°19.762 2°47.959 273.9 15 268 21.1
2003-04-01 07:19:12 51°19.762 2°47.926 274.3 15 268 21.2
2003-04-01 07:19:17 51°19.762 2°47.893 274.4 15 269 21
2003-04-01 07:19:21 51°19.761 2°47.867 274.5 15 268 21.2
2003-04-01 07:19:27 51°19.76 2°47.827 274 15 268 21.2
2003-04-01 07:19:32 51°19.759 2°47.794 273.6 15 268 21.3
2003-04-01 07:19:37 51°19.759 2°47.761 274.1 15 268 21.3
2003-04-01 07:19:41 51°19.758 2°47.734 274.5 15 268 21.1
2003-04-01 07:19:47 51°19.757 2°47.695 274.1 15 268 21.2
2003-04-01 07:19:52 51°19.756 2°47.662 273.9 15 268 21.2
2003-04-01 07:19:57 51°19.755 2°47.629 274.1 15 268 20.8
2003-04-01 07:20:01 51°19.754 2°47.602 274.1 15 268 20.9
2003-04-01 07:20:07 51°19.753 2°47.563 274.2 15 268 20.9
2003-04-01 07:20:12 51°19.752 2°47.529 274.2 15 268 21
2003-04-01 07:20:17 51°19.75 2°47.496 273.6 15 267 20.9
2003-04-01 07:20:21 51°19.75 2°47.469 274.1 15 267 21
2003-04-01 07:20:27 51°19.75 2°47.43 274.5 15 268 20.9
2003-04-01 07:20:32 51°19.749 2°47.396 274.2 15 268 20.9
2003-04-01 07:20:37 51°19.749 2°47.363 274.3 15.1 268 20.8
2003-04-01 07:20:41 51°19.748 2°47.336 273.9 15.1 268 20.7
2003-04-01 07:20:47 51°19.748 2°47.296 274 15.1 267 20.8
2003-04-01 07:20:52 51°19.747 2°47.263 274.1 15.1 267 20.4
2003-04-01 07:20:57 51°19.746 2°47.229 274.6 15.1 267 20.5
2003-04-01 07:21:01 51°19.746 2°47.203 273.8 15.1 268 20.2
2003-04-01 07:21:07 51°19.744 2°47.162 274.1 15.1 267 20.3
2003-04-01 07:21:12 51°19.744 2°47.128 274.3 15.2 268 20.3
2003-04-01 07:21:17 51°19.743 2°47.095 274.3 15.2 267 20.2
2003-04-01 07:21:21 51°19.742 2°47.068 274.4 15.2 268 20.2
2003-04-01 07:21:27 51°19.74 2°47.028 274 15.2 267 20
2003-04-01 07:21:32 51°19.739 2°46.994 274.1 15.2 267 19.7
2003-04-01 07:21:37 51°19.738 2°46.961 273.9 15.2 267 19.7
2003-04-01 07:21:41 51°19.738 2°46.934 274.1 15.2 267 19.6
2003-04-01 07:21:47 51°19.736 2°46.894 274.5 15.2 267 19.7
2003-04-01 07:21:52 51°19.735 2°46.86 274 15.2 267 19.4
2003-04-01 07:21:57 51°19.733 2°46.826 274.1 15.3 267 19.2
2003-04-01 07:22:02 51°19.732 2°46.793 274.3 15.3 268 18.8
2003-04-01 07:22:07 51°19.731 2°46.76 274.4 15.2 268 18.5
2003-04-01 07:22:12 51°19.73 2°46.726 274.3 15.2 268 18.7
2003-04-01 07:22:17 51°19.729 2°46.693 274.5 15.2 268 17.4
2003-04-01 07:22:22 51°19.729 2°46.659 274 15.2 268 18.2
2003-04-01 07:22:27 51°19.728 2°46.625 274.3 15.2 267 18.5
2003-04-01 07:22:32 51°19.727 2°46.592 273.9 15.2 267 17.3
2003-04-01 07:22:37 51°19.726 2°46.558 274 15.2 267 17.9
2003-04-01 07:22:41 51°19.725 2°46.531 274.5 15.2 267 17.8
2003-04-01 07:22:47 51°19.723 2°46.491 274.4 15.2 268 16.1
2003-04-01 07:22:52 51°19.722 2°46.457 274 15.2 267 17.4
2003-04-01 07:22:57 51°19.721 2°46.424 274.3 15.2 267 17
2003-04-01 07:23:01 51°19.72 2°46.397 274.1 15.2 267 14.7
2003-04-01 07:23:07 51°19.719 2°46.356 274.3 15.2 267 16.3
2003-04-01 07:23:12 51°19.718 2°46.323 274.3 15.2 267 16.5
2003-04-01 07:23:17 51°19.717 2°46.289 274.5 15.2 267 15.2
2003-04-01 07:23:21 51°19.716 2°46.262 274.3 15.1 268 14.8
2003-04-01 07:23:27 51°19.715 2°46.222 274.2 15.1 267 14.8
2003-04-01 07:23:32 51°19.715 2°46.188 274.3 15.2 267 13
2003-04-01 07:23:37 51°19.715 2°46.154 274.3 15.2 268 14.9
2003-04-01 07:23:41 51°19.714 2°46.127 274.4 15.1 267 13.4
2003-04-01 07:23:47 51°19.713 2°46.087 274.4 15.1 268 12.2
2003-04-01 07:23:52 51°19.713 2°46.054 274.5 15.1 268 14
2003-04-01 07:23:57 51°19.713 2°46.02 274.3 15.1 268 13.9
2003-04-01 07:24:01 51°19.712 2°45.994 274.6 15.1 268 13.1
2003-04-01 07:24:07 51°19.71 2°45.954 274.8 15.1 267 11.1
2003-04-01 07:24:12 51°19.709 2°45.921 274.1 15.1 268 11.6
2003-04-01 07:24:17 51°19.708 2°45.888 273.9 14.9 267 12
2003-04-01 07:24:22 51°19.707 2°45.855 274.2 14.9 268 11.8
2003-04-01 07:24:27 51°19.706 2°45.821 274.9 15 268 9.8
2003-04-01 07:24:32 51°19.705 2°45.788 274.5 15.1 268 12
2003-04-01 07:24:37 51°19.704 2°45.755 274.4 15 268 12.1
2003-04-01 07:24:41 51°19.704 2°45.729 274.3 15 268 11
2003-04-01 07:24:47 51°19.703 2°45.689 274.4 15 268 10.5
2003-04-01 07:24:52 51°19.702 2°45.656 274.1 15 268 11.8
2003-04-01 07:24:57 51°19.702 2°45.622 274.3 15 268 11.9
2003-04-01 07:25:01 51°19.702 2°45.596 274.9 15 268 11.1
2003-04-01 07:25:07 51°19.701 2°45.555 274.4 15.1 268 11.3
2003-04-01 07:25:12 51°19.7 2°45.522 274.7 15.1 268 10.2
2003-04-01 07:25:17 51°19.7 2°45.489 274.3 15 268 12.3
2003-04-01 07:25:21 51°19.699 2°45.462 274.4 15 269 10.9
2003-04-01 07:25:27 51°19.698 2°45.423 274.2 15 269 12.9
2003-04-01 07:25:32 51°19.697 2°45.389 274.3 15 268 11.6
2003-04-01 07:25:37 51°19.696 2°45.355 272.8 15.2 267 12.9
2003-04-01 07:25:41 51°19.693 2°45.328 269.2 15.2 265 14.3
2003-04-01 07:25:47 51°19.689 2°45.289 266.6 15.2 262 15.3
2003-04-01 07:25:52 51°19.685 2°45.256 264.2 15.2 259 15.7
2003-04-01 07:25:57 51°19.679 2°45.224 260 15.1 256 15.4
2003-04-01 07:26:01 51°19.673 2°45.198 256.7 15.1 253 16.4
2003-04-01 07:26:07 51°19.664 2°45.161 253.7 15.2 250 17.2
2003-04-01 07:26:12 51°19.656 2°45.13 251.4 15.1 248 18.2
2003-04-01 07:26:17 51°19.646 2°45.1 249.5 15 246 18.3
2003-04-01 07:26:21 51°19.639 2°45.077 247.7 15 244 18.7
2003-04-01 07:26:27 51°19.626 2°45.042 244 15 242 19.2
2003-04-01 07:26:32 51°19.614 2°45.015 241 15 239 19.5
2003-04-01 07:26:37 51°19.603 2°44.987 239.2 15 237 19.8
2003-04-01 07:26:42 51°19.59 2°44.962 235.9 14.9 235 19.9
2003-04-01 07:26:45 51°19.582 2°44.946 236.2 15 233 19.9
2003-04-01 07:26:52 51°19.565 2°44.909 234.4 15 233 20
2003-04-01 07:26:57 51°19.551 2°44.884 233.2 14.9 230 20.1
2003-04-01 07:27:01 51°19.541 2°44.864 232.1 14.9 230 20.1
2003-04-01 07:27:07 51°19.524 2°44.833 231.5 15 229 20.1
2003-04-01 07:27:12 51°19.51 2°44.808 230.7 15 229 20.2
2003-04-01 07:27:17 51°19.496 2°44.785 229.3 15 227 20.3
2003-04-01 07:27:21 51°19.485 2°44.766 229.2 15 227 20.2
2003-04-01 07:27:27 51°19.468 2°44.736 229.1 15 227 20.2
2003-04-01 07:27:32 51°19.453 2°44.713 228.5 15 226 20.2
2003-04-01 07:27:37 51°19.439 2°44.689 228.4 15 226 20.2
2003-04-01 07:27:41 51°19.428 2°44.67 228.6 15 226 20.3
2003-04-01 07:27:47 51°19.41 2°44.642 228.6 14.9 226 20.4
2003-04-01 07:27:52 51°19.396 2°44.617 228.6 15 226 20.5
2003-04-01 07:27:57 51°19.382 2°44.594 229 15 226 20.5
2003-04-01 07:28:01 51°19.371 2°44.575 228.6 15 227 20.5
2003-04-01 07:28:07 51°19.354 2°44.546 229.1 15 226 20.5
2003-04-01 07:28:12 51°19.339 2°44.522 229.2 15.1 227 20.5
2003-04-01 07:28:17 51°19.325 2°44.498 228.6 15 226 20.6
2003-04-01 07:28:22 51°19.311 2°44.474 229.2 15 226 20.7
2003-04-01 07:28:27 51°19.296 2°44.45 228.9 15 227 20.7
2003-04-01 07:28:32 51°19.282 2°44.426 229.3 15 226 20.8
2003-04-01 07:28:37 51°19.268 2°44.402 229.3 15 227 20.7
2003-04-01 07:28:42 51°19.253 2°44.377 229.6 15 227 20.8
2003-04-01 07:28:47 51°19.239 2°44.352 230.2 15 228 20.8
2003-04-01 07:28:52 51°19.225 2°44.328 229.3 14.9 227 20.7
2003-04-01 07:28:57 51°19.211 2°44.303 230.8 15 227 20.8
2003-04-01 07:29:01 51°19.2 2°44.284 229.5 15 228 20.8
2003-04-01 07:29:05 51°19.188 2°44.267 230 14.7 227 20.8
2003-04-01 07:29:11 51°19.173 2°44.238 229.6 14.2 228 20.8
2003-04-01 07:29:17 51°19.158 2°44.213 229.5 13.7 226 20.8
2003-04-01 07:29:22 51°19.147 2°44.192 230.8 12.9 228 20.9
2003-04-01 07:29:27 51°19.135 2°44.173 230.3 12.4 227 20.9
2003-04-01 07:29:32 51°19.125 2°44.154 230.3 11.8 228 21.1
2003-04-01 07:29:37 51°19.114 2°44.136 230.8 11.5 228 21.1
2003-04-01 07:29:41 51°19.106 2°44.121 231.8 11.2 229 21.2
2003-04-01 07:29:47 51°19.095 2°44.099 232.6 10.9 230 21.2
2003-04-01 07:29:52 51°19.086 2°44.081 233.1 10.5 230 21.2
2003-04-01 07:29:57 51°19.077 2°44.065 234.6 10.1 231 21.3
2003-04-01 07:30:02 51°19.07 2°44.049 235.8 9.4 232 21.2
2003-04-01 07:30:07 51°19.063 2°44.034 236.8 8.9 233 21.3
2003-04-01 07:30:12 51°19.056 2°44.019 238.5 8.4 235 21.3
2003-04-01 07:30:17 51°19.05 2°44.005 240.2 8.1 236 21.2
2003-04-01 07:30:22 51°19.044 2°43.991 242.1 7.8 237 21.4
2003-04-01 07:30:27 51°19.038 2°43.978 243 7.5 237 21.5
2003-04-01 07:30:32 51°19.033 2°43.965 241.6 7.2 238 21.5
2003-04-01 07:30:37 51°19.028 2°43.952 238.9 6.9 238 21.5
2003-04-01 07:30:41 51°19.024 2°43.943 234.5 6.7 236 21.5
2003-04-01 07:30:47 51°19.017 2°43.929 231.6 6.4 233 21.5
2003-04-01 07:30:52 51°19.012 2°43.919 229.3 6.3 231 21.6
2003-04-01 07:30:57 51°19.005 2°43.909 227.9 6.2 229 21.6
2003-04-01 07:31:02 51°19 2°43.899 227.2 6 229 21.6
2003-04-01 07:31:07 51°18.994 2°43.89 227.1 5.8 229 21.7
2003-04-01 07:31:13 51°18.988 2°43.879 227 5.6 229 21.7
2003-04-01 07:31:17 51°18.984 2°43.872 227.1 5.6 228 21.7
2003-04-01 07:31:21 51°18.979 2°43.864 227.7 5.5 228 21.7
2003-04-01 07:31:27 51°18.973 2°43.854 228.1 5.4 228 21.8
2003-04-01 07:31:31 51°18.969 2°43.847 228.6 5.3 228 21.8
2003-04-01 07:31:37 51°18.964 2°43.837 229.1 5.2 229 21.8
2003-04-01 07:31:43 51°18.959 2°43.827 229.4 5 229 22
2003-04-01 07:31:47 51°18.956 2°43.821 229.7 4.8 230 21.8
2003-04-01 07:31:52 51°18.952 2°43.813 229.8 4.5 229 21.8
2003-04-01 07:31:57 51°18.948 2°43.804 230.3 4.3 230 21.8
2003-04-01 07:32:01 51°18.945 2°43.798 230.8 4 231 21.9
2003-04-01 07:32:07 51°18.942 2°43.79 231.8 3.8 233 21.8
2003-04-01 07:32:12 51°18.939 2°43.785 233.1 3.4 234 21.9
2003-04-01 07:32:17 51°18.938 2°43.781 235.1 3 236 21.9
2003-04-01 07:32:22 51°18.937 2°43.778 237.8 2.2 238 21.9
2003-04-01 07:32:27 51°18.936 2°43.776 240.9 1.7 239 21.9
2003-04-01 07:32:33 51°18.936 2°43.775 243.9 0.8 246 21.9
2003-04-01 07:32:37 51°18.936 2°43.775 247 0.4 259 21.9
2003-04-01 07:32:41 51°18.936 2°43.775 250.4 0.2 298 22.3
2003-04-01 07:32:48 51°18.937 2°43.774 254.7 0.2 297 -999
2003-04-01 07:32:53 51°18.936 2°43.774 258.5 0.2 283 -999
2003-04-01 07:32:57 51°18.936 2°43.774 261.4 0.3 276 5.4
2003-04-01 07:33:02 51°18.936 2°43.774 263.6 0.3 262 22
2003-04-01 07:33:07 51°18.936 2°43.773 265 0.3 249 21.9
2003-04-01 07:33:11 51°18.935 2°43.772 266.3 0.4 250 22
2003-04-01 07:33:17 51°18.935 2°43.772 267.2 0.4 257 21.9
2003-04-01 07:33:21 51°18.934 2°43.771 268.4 0.5 258 21.9
2003-04-01 07:33:27 51°18.934 2°43.77 269.5 0.5 262 22
2003-04-01 07:33:32 51°18.934 2°43.768 270.5 0.6 262 22
2003-04-01 07:33:37 51°18.935 2°43.767 271.4 0.6 261 5.2
2003-04-01 07:33:41 51°18.936 2°43.765 273 0.7 259 21.9
2003-04-01 07:33:47 51°18.936 2°43.763 274.1 0.7 264 21.9
2003-04-01 07:33:51 51°18.935 2°43.762 275.8 0.8 264 21.9
2003-04-01 07:33:57 51°18.935 2°43.76 277.2 0.8 266 22
2003-04-01 07:34:02 51°18.935 2°43.758 278.7 0.9 268 22
2003-04-01 07:34:07 51°18.935 2°43.756 280.2 0.9 268 21.9
2003-04-01 07:34:12 51°18.935 2°43.754 281.5 0.9 269 21.9
2003-04-01 07:34:17 51°18.935 2°43.752 283 0.9 269 21.9
2003-04-01 07:34:22 51°18.935 2°43.75 284.5 0.9 273 21.9
2003-04-01 07:34:27 51°18.935 2°43.748 286.2 0.9 272 21.9
2003-04-01 07:34:31 51°18.935 2°43.746 287.9 0.9 273 22
2003-04-01 07:34:37 51°18.935 2°43.744 289.1 0.9 275 22
2003-04-01 07:34:41 51°18.935 2°43.743 291.1 0.9 275 22
2003-04-01 07:34:47 51°18.935 2°43.741 292.1 0.9 274 22
2003-04-01 07:34:52 51°18.935 2°43.739 293.3 0.9 276 22
2003-04-01 07:34:57 51°18.935 2°43.737 294.6 0.9 276 22.1
2003-04-01 07:35:03 51°18.935 2°43.735 295.4 0.9 278 22.1
2003-04-01 07:35:07 51°18.935 2°43.733 296.5 0.9 278 22.1
2003-04-01 07:35:12 51°18.935 2°43.731 297.7 1 279 22.1
2003-04-01 07:35:17 51°18.936 2°43.729 298.5 1.1 277 21.9
2003-04-01 07:35:21 51°18.936 2°43.727 299.1 1.1 279 22.1
2003-04-01 07:35:27 51°18.936 2°43.725 299.6 1.1 279 22.1
2003-04-01 07:35:33 51°18.936 2°43.722 300.4 1.1 277 22.1
2003-04-01 07:35:37 51°18.936 2°43.72 301.2 1.1 278 22
2003-04-01 07:35:43 51°18.937 2°43.717 302 1.1 279 22
2003-04-01 07:35:47 51°18.937 2°43.715 302.8 1 279 22.1
2003-04-01 07:35:52 51°18.938 2°43.713 303.8 1 281 22.1
2003-04-01 07:35:57 51°18.938 2°43.711 304.6 1 279 22.1
2003-04-01 07:36:03 51°18.938 2°43.709 305.4 0.9 279 22.1
2003-04-01 07:36:07 51°18.938 2°43.707 305.8 0.9 281 22.1
2003-04-01 07:36:12 51°18.938 2°43.706 306.3 0.8 282 22.1
2003-04-01 07:36:17 51°18.938 2°43.704 307.1 0.8 279 22
2003-04-01 07:36:21 51°18.938 2°43.702 307.9 0.8 274 22.1
2003-04-01 07:36:27 51°18.938 2°43.701 308.4 0.7 273 22.2
2003-04-01 07:36:32 51°18.938 2°43.7 308.9 0.6 271 22.3
2003-04-01 07:36:37 51°18.938 2°43.698 309.5 0.6 270 22.2
2003-04-01 07:36:42 51°18.938 2°43.697 310.1 0.6 267 22.2
2003-04-01 07:36:47 51°18.938 2°43.696 310.5 0.5 264 22.2
2003-04-01 07:36:51 51°18.938 2°43.695 311.2 0.5 259 22.2
2003-04-01 07:36:57 51°18.938 2°43.693 312.3 0.5 256 22.1
2003-04-01 07:37:02 51°18.938 2°43.692 313.2 0.5 256 22.2
2003-04-01 07:37:07 51°18.938 2°43.692 314.4 0.4 253 22.1
2003-04-01 07:37:12 51°18.938 2°43.691 315.6 0.4 244 22.2
2003-04-01 07:37:17 51°18.937 2°43.69 317.1 0.4 233 22.1
2003-04-01 07:37:22 51°18.936 2°43.69 317.9 0.4 228 22.1
2003-04-01 07:37:27 51°18.936 2°43.689 319.3 0.4 227 22.1
2003-04-01 07:37:32 51°18.936 2°43.689 320.4 0.4 220 22.1
2003-04-01 07:37:37 51°18.935 2°43.688 321.3 0.5 218 22.1
2003-04-01 07:37:43 51°18.934 2°43.687 322.2 0.5 218 22.1
2003-04-01 07:37:47 51°18.933 2°43.687 323.8 0.5 214 22.2
2003-04-01 07:37:52 51°18.933 2°43.686 325 0.5 207 22.2
2003-04-01 07:37:57 51°18.932 2°43.686 326.4 0.6 215 22.2
2003-04-01 07:38:03 51°18.931 2°43.686 328 0.6 217 22.2
2003-04-01 07:38:07 51°18.93 2°43.685 329.3 0.6 210 22.2
2003-04-01 07:38:12 51°18.93 2°43.685 330.9 0.6 202 22.3
2003-04-01 07:38:17 51°18.929 2°43.684 331.9 0.6 200 22.2
2003-04-01 07:38:22 51°18.928 2°43.684 333.1 0.7 204 22.2
2003-04-01 07:38:27 51°18.927 2°43.683 334 0.6 202 22.2
2003-04-01 07:38:33 51°18.926 2°43.683 335.3 0.7 201 22.1
2003-04-01 07:38:37 51°18.925 2°43.682 336.4 0.7 199 22.1
2003-04-01 07:38:41 51°18.924 2°43.682 336.8 0.8 199 22.1
2003-04-01 07:38:47 51°18.923 2°43.681 338.3 0.8 196 22.1
2003-04-01 07:38:52 51°18.922 2°43.68 339.6 0.8 198 22.2
2003-04-01 07:38:57 51°18.921 2°43.68 340.9 0.8 198 22.2
2003-04-01 07:39:02 51°18.919 2°43.679 341.9 0.8 198 22.1
2003-04-01 07:39:07 51°18.918 2°43.678 342.5 0.9 199 22.2
2003-04-01 07:39:12 51°18.917 2°43.677 343.3 0.9 199 22.2
2003-04-01 07:39:17 51°18.916 2°43.677 344 0.9 200 22.2
2003-04-01 07:39:23 51°18.915 2°43.676 344.7 0.9 196 22.3
2003-04-01 07:39:27 51°18.914 2°43.676 345.3 0.9 198 22.2
2003-04-01 07:39:32 51°18.912 2°43.675 346.2 0.9 195 22.3
2003-04-01 07:39:37 51°18.912 2°43.674 347.1 0.9 196 22.2
2003-04-01 07:39:43 51°18.91 2°43.674 348.5 0.9 195 22.2
2003-04-01 07:39:47 51°18.909 2°43.673 349.6 0.9 195 22.2
2003-04-01 07:39:52 51°18.908 2°43.673 350.6 0.9 197 22.2
2003-04-01 07:39:57 51°18.907 2°43.671 351.2 0.9 199 22.2
2003-04-01 07:40:01 51°18.906 2°43.67 351.9 0.9 206 22.2
2003-04-01 07:40:07 51°18.905 2°43.67 352.7 0.9 206 22.2
2003-04-01 07:40:12 51°18.903 2°43.67 353 0.9 200 22.3
2003-04-01 07:40:17 51°18.902 2°43.669 353.5 0.9 198 22.3
2003-04-01 07:40:21 51°18.901 2°43.668 354.3 0.9 197 22.2
2003-04-01 07:40:27 51°18.899 2°43.667 355.2 0.8 199 22.2
2003-04-01 07:40:32 51°18.898 2°43.667 355.7 0.8 199 22.2
2003-04-01 07:40:37 51°18.897 2°43.666 356.3 0.8 201 22.2
2003-04-01 07:40:43 51°18.896 2°43.666 357.5 0.8 206 22.3
2003-04-01 07:40:47 51°18.895 2°43.665 358.2 0.7 207 22.3
2003-04-01 07:40:52 51°18.894 2°43.664 359 0.7 214 22.3
2003-04-01 07:40:57 51°18.893 2°43.664   0.7 212 22.3
2003-04-01 07:41:01 51°18.893 2°43.663 0.6 0.7 215 22.3
2003-04-01 07:41:07 51°18.892 2°43.662 1.2 0.6 213 22.3
2003-04-01 07:41:12 51°18.891 2°43.661 1.7 0.6 216 22.3
2003-04-01 07:41:17 51°18.891 2°43.661 2.2 0.6 219 22.2
2003-04-01 07:41:21 51°18.89 2°43.66 2.9 0.6 223 22.3
2003-04-01 07:41:27 51°18.89 2°43.659 3.3 0.6 223 22.3
2003-04-01 07:41:33 51°18.889 2°43.658 3.7 0.6 226 22.2
2003-04-01 07:41:37 51°18.889 2°43.657 4 0.5 231 22.2
2003-04-01 07:41:41 51°18.888 2°43.656 4.2 0.5 237 22.2
2003-04-01 07:41:47 51°18.888 2°43.656 4.4 0.5 238 22.2
2003-04-01 07:41:51 51°18.888 2°43.655 4.4 0.5 243 22.2
2003-04-01 07:41:57 51°18.887 2°43.653 4.5 0.5 246 22.3
2003-04-01 07:42:01 51°18.887 2°43.653 4.3 0.5 247 22.3
2003-04-01 07:42:07 51°18.887 2°43.651 3.8 0.5 252 22.3
2003-04-01 07:42:11 51°18.887 2°43.65 3.3 0.5 257 22.2
2003-04-01 07:42:17 51°18.887 2°43.649 2.8 0.5 260 22.1
2003-04-01 07:42:21 51°18.887 2°43.649 2.1 0.5 260 22.2
2003-04-01 07:42:27 51°18.886 2°43.647 1.7 0.5 259 22.2
2003-04-01 07:42:31 51°18.886 2°43.646 1 0.5 263 22.2
2003-04-01 07:42:37 51°18.886 2°43.645 0.1 0.5 266 22.2
2003-04-01 07:42:43 51°18.886 2°43.644 359.6 0.5 274 22.2
2003-04-01 07:42:47 51°18.886 2°43.643 359.2 0.5 279 22.3
2003-04-01 07:42:52 51°18.887 2°43.641 358.6 0.6 287 22.3
2003-04-01 07:42:57 51°18.887 2°43.64 358.1 0.7 291 22.3
2003-04-01 07:43:01 51°18.887 2°43.638 357.8 0.7 294 22.3
2003-04-01 07:43:07 51°18.888 2°43.637 357.6 0.8 296 22.3
2003-04-01 07:43:12 51°18.888 2°43.635 357.4 0.8 299 22.3
2003-04-01 07:43:17 51°18.889 2°43.633 357.3 0.9 300 22.3
2003-04-01 07:43:22 51°18.89 2°43.631 357.2 0.9 302 22.3
2003-04-01 07:43:27 51°18.89 2°43.63 357.1 0.9 304 22.4
2003-04-01 07:43:31 51°18.891 2°43.628 357.1 1 305 22.4
2003-04-01 07:43:37 51°18.892 2°43.626 357.2 1 307 22.3
2003-04-01 07:43:41 51°18.893 2°43.625 357.6 1.1 308 22.4
2003-04-01 07:43:47 51°18.894 2°43.623 357.8 1.1 310 22.3
2003-04-01 07:43:52 51°18.895 2°43.621 358.5 1.1 312 22.3
2003-04-01 07:43:57 51°18.896 2°43.619 359.2 1.1 313 22.3
2003-04-01 07:44:02 51°18.897 2°43.617 359.7 1.2 313 22.3
2003-04-01 07:44:07 51°18.899 2°43.615 0.4 1.2 314 22.3
2003-04-01 07:44:12 51°18.9 2°43.614 0.9 1.2 316 22.3
2003-04-01 07:44:17 51°18.901 2°43.611 1.5 1.2 319 22.4
2003-04-01 07:44:21 51°18.902 2°43.61 2.1 1.2 320 22.4
2003-04-01 07:44:27 51°18.904 2°43.608 3.2 1.2 321 22.4
2003-04-01 07:44:32 51°18.905 2°43.607 4.6 1.2 326 22.5
2003-04-01 07:44:37 51°18.907 2°43.606 5.6 1.2 327 22.4
2003-04-01 07:44:41 51°18.908 2°43.605 7.2 1.2 328 22.4
2003-04-01 07:44:47 51°18.91 2°43.603 8.4 1.2 330 22.5
2003-04-01 07:44:52 51°18.912 2°43.602 9.7 1.2 331 22.4
2003-04-01 07:44:57 51°18.913 2°43.601 10.8 1.3 334 22.4
2003-04-01 07:45:01 51°18.914 2°43.6 12.3 1.3 333 22.4
2003-04-01 07:45:07 51°18.916 2°43.598 14.4 1.2 337 22.3
2003-04-01 07:45:12 51°18.918 2°43.597 16 1.3 339 22.2
2003-04-01 07:45:17 51°18.92 2°43.597 17.7 1.2 341 22.3
2003-04-01 07:45:21 51°18.921 2°43.596 19.3 1.2 345 22.3
2003-04-01 07:45:27 51°18.923 2°43.595 21.8 1.2 346 22.3
2003-04-01 07:45:32 51°18.924 2°43.595 24 1.2 347 22.3
2003-04-01 07:45:37 51°18.926 2°43.595 25.8 1.2 351 22.3
2003-04-01 07:45:43 51°18.928 2°43.594 28.7 1.2 353 22.2
2003-04-01 07:45:47 51°18.929 2°43.595 30.5 1.1 357 22.3
2003-04-01 07:45:52 51°18.93 2°43.595 32.9 1.1 1 22.3
2003-04-01 07:45:57 51°18.932 2°43.595 36 1.1 6 22.3
2003-04-01 07:46:03 51°18.933 2°43.596 38.4 1.1 10 22.3
2003-04-01 07:46:07 51°18.934 2°43.597 41.2 1 15 22.3
2003-04-01 07:46:12 51°18.935 2°43.598 44.2 0.9 21 22.3
2003-04-01 07:46:17 51°18.936 2°43.599 47.3 0.9 25 22.3
2003-04-01 07:46:21 51°18.937 2°43.599 50.9 0.8 31 22.3
2003-04-01 07:46:27 51°18.938 2°43.601 53.4 0.8 34 22.3
2003-04-01 07:46:32 51°18.939 2°43.602 56.8 0.8 42 22.4
2003-04-01 07:46:37 51°18.939 2°43.603 59.8 0.8 48 22.4
2003-04-01 07:46:43 51°18.94 2°43.605 62 0.8 52 22.4
2003-04-01 07:46:47 51°18.94 2°43.606 64.9 0.8 58 22.3
2003-04-01 07:46:52 51°18.941 2°43.608 67.5 0.8 67 22.3
2003-04-01 07:46:57 51°18.941 2°43.61 71.1 0.8 72 22.4
2003-04-01 07:47:01 51°18.941 2°43.611 73.7 0.8 74 22.3
2003-04-01 07:47:07 51°18.941 2°43.613 76.3 0.8 81 22.3
2003-04-01 07:47:13 51°18.941 2°43.615 78.5 0.8 88 22.4
2003-04-01 07:47:17 51°18.941 2°43.617 81 0.9 90 22.3
2003-04-01 07:47:21 51°18.941 2°43.618 83.4 0.9 97 22.3
2003-04-01 07:47:27 51°18.94 2°43.62 86.1 0.9 101 22.3
2003-04-01 07:47:31 51°18.94 2°43.622 88.5 0.9 105 22.3
2003-04-01 07:47:37 51°18.939 2°43.624 90.7 0.9 108 22.3
2003-04-01 07:47:41 51°18.939 2°43.626 93.1 0.9 113 22.3
2003-04-01 07:47:47 51°18.938 2°43.628 96.1 0.9 116 22.4
2003-04-01 07:47:52 51°18.937 2°43.63 97.6 1 121 22.4
2003-04-01 07:47:57 51°18.937 2°43.632 99.8 1 125 22.3
2003-04-01 07:48:01 51°18.936 2°43.633 102.1 1 128 22.3
2003-04-01 07:48:07 51°18.935 2°43.635 104.3 1 132 22.3
2003-04-01 07:48:12 51°18.934 2°43.638 106.7 1.1 128 22.3
2003-04-01 07:48:17 51°18.933 2°43.639 109.1 1.1 131 22.2
2003-04-01 07:48:21 51°18.933 2°43.641 111.2 1.1 136 22.2
2003-04-01 07:48:27 51°18.932 2°43.644 113.2 1.1 141 22.3
2003-04-01 07:48:32 51°18.93 2°43.645 116 1.2 145 22.3
2003-04-01 07:48:37 51°18.928 2°43.646 117.5 1.2 147 22.3
2003-04-01 07:48:42 51°18.927 2°43.646 119.8 1.2 151 22.3
2003-04-01 07:48:47 51°18.925 2°43.647 121.8 1.2 152 22.3
2003-04-01 07:48:52 51°18.923 2°43.648 123.5 1.3 153 22.4
2003-04-01 07:48:57 51°18.921 2°43.649 125.4 1.2 154 22.3
2003-04-01 07:49:01 51°18.92 2°43.65 127.7 1.2 155 22.4
2003-04-01 07:49:07 51°18.918 2°43.651 128.7 1.3 156 22.2
2003-04-01 07:49:12 51°18.916 2°43.652 130.3 1.3 159 22.2
2003-04-01 07:49:17 51°18.914 2°43.654 132 1.3 160 22.3
2003-04-01 07:49:23 51°18.913 2°43.655 133.8 1.3 162 22.4
2003-04-01 07:49:27 51°18.911 2°43.656 135.4 1.4 163 22.4
2003-04-01 07:49:32 51°18.909 2°43.657 137 1.4 165 22.4
2003-04-01 07:49:37 51°18.908 2°43.657 138.4 1.3 165 22.3
2003-04-01 07:49:41 51°18.906 2°43.657 140 1.4 168 22.3
2003-04-01 07:49:47 51°18.903 2°43.658 141 1.4 170 22.4
2003-04-01 07:49:52 51°18.902 2°43.658 142.8 1.3 166 22.4
2003-04-01 07:49:57 51°18.899 2°43.659 143.6 1.3 166 22.4
2003-04-01 07:50:03 51°18.897 2°43.659 144.9 1.4 172 22.4
2003-04-01 07:50:07 51°18.895 2°43.659 145.8 1.5 172 22.4
2003-04-01 07:50:12 51°18.893 2°43.66 147.1 1.5 172 22.3
2003-04-01 07:50:17 51°18.891 2°43.66 148.1 1.4 173 22.3
2003-04-01 07:50:22 51°18.889 2°43.661 149.5 1.5 174 22.3
2003-04-01 07:50:27 51°18.887 2°43.661 150.7 1.5 175 22.3
2003-04-01 07:50:32 51°18.885 2°43.661 151.6 1.5 176 22.3
2003-04-01 07:50:37 51°18.883 2°43.661 152.8 1.5 177 22.4
2003-04-01 07:50:43 51°18.88 2°43.661 153.8 1.5 178 22.4
2003-04-01 07:50:47 51°18.879 2°43.661 154.9 1.5 179 22.3
2003-04-01 07:50:52 51°18.876 2°43.661 155.9 1.5 179 22.4
2003-04-01 07:50:57 51°18.874 2°43.661 156.8 1.5 179 22.4
2003-04-01 07:51:01 51°18.873 2°43.661 158.1 1.6 178 22.4
2003-04-01 07:51:07 51°18.869 2°43.662 159.4 1.8 176 22.3
2003-04-01 07:51:12 51°18.866 2°43.662 161.8 2 177 22.3
2003-04-01 07:51:17 51°18.863 2°43.662 164.7 2.3 179 22.3
2003-04-01 07:51:21 51°18.86 2°43.662 168.3 2.5 179 22.3
2003-04-01 07:51:27 51°18.855 2°43.662 172.6 2.8 180 22.4
2003-04-01 07:51:32 51°18.85 2°43.661 177 3.1 183 22.3
2003-04-01 07:51:37 51°18.845 2°43.659 181.9 3.4 187 22.3
2003-04-01 07:51:42 51°18.84 2°43.657 186.9 3.6 192 22.3
2003-04-01 07:51:47 51°18.835 2°43.654 192.3 3.8 197 22.2
2003-04-01 07:51:52 51°18.83 2°43.651 197.2 3.9 200 22.3
2003-04-01 07:51:57 51°18.825 2°43.646 203.1 4.1 204 22.2
2003-04-01 07:52:01 51°18.821 2°43.642 208.9 4.2 210 22.3
2003-04-01 07:52:07 51°18.815 2°43.635 214.7 4.3 214 22.2
2003-04-01 07:52:12 51°18.81 2°43.628 220.8 4.5 219 22.2
2003-04-01 07:52:17 51°18.806 2°43.62 227.3 4.7 224 22.2
2003-04-01 07:52:22 51°18.801 2°43.612 232.3 4.8 228 22.3
2003-04-01 07:52:27 51°18.797 2°43.603 237.2 5 231 22.3
2003-04-01 07:52:31 51°18.794 2°43.595 241.9 5.1 236 22.3
2003-04-01 07:52:37 51°18.79 2°43.582 246.8 5.2 240 22.3
2003-04-01 07:52:41 51°18.788 2°43.574 251.8 5.4 244 22.4
2003-04-01 07:52:47 51°18.784 2°43.56 255.9 5.5 248 22.4
2003-04-01 07:52:51 51°18.783 2°43.55 258.7 5.6 251 22.4
2003-04-01 07:52:57 51°18.78 2°43.535 261 5.7 253 22.5
2003-04-01 07:53:01 51°18.779 2°43.525 262.4 5.9 255 22.5
2003-04-01 07:53:07 51°18.777 2°43.509 263.4 6 256 22.5
2003-04-01 07:53:12 51°18.775 2°43.496 263.8 6.2 258 22.6
2003-04-01 07:53:17 51°18.773 2°43.482 264.4 6.3 258 22.6
2003-04-01 07:53:22 51°18.771 2°43.467 265.3 6.5 259 22.6
2003-04-01 07:53:27 51°18.769 2°43.452 265.8 6.7 260 22.6
2003-04-01 07:53:32 51°18.768 2°43.437 266.3 6.9 260 22.7
2003-04-01 07:53:37 51°18.766 2°43.421 266.5 7.1 260 22.7
2003-04-01 07:53:41 51°18.765 2°43.408 266.8 7.2 261 22.8
2003-04-01 07:53:47 51°18.763 2°43.389 267 7.4 261 22.8
2003-04-01 07:53:52 51°18.761 2°43.372 266.9 7.5 260 22.9
2003-04-01 07:53:57 51°18.759 2°43.355 266.9 7.6 261 22.8
2003-04-01 07:54:03 51°18.757 2°43.335 267.2 7.7 261 22.9
2003-04-01 07:54:07 51°18.756 2°43.321 267.1 7.8 261 22.8
2003-04-01 07:54:12 51°18.754 2°43.304 267 7.9 261 23
2003-04-01 07:54:17 51°18.752 2°43.287 267 7.9 261 22.9
2003-04-01 07:54:23 51°18.75 2°43.266 267 8 261 22.9
2003-04-01 07:54:27 51°18.749 2°43.251 267 8 261 22.9
2003-04-01 07:54:32 51°18.747 2°43.234 267.3 8.1 261 23
2003-04-01 07:54:37 51°18.745 2°43.216 267.2 8.1 261 23
2003-04-01 07:54:43 51°18.743 2°43.195 267.1 8.1 261 22.9
2003-04-01 07:54:47 51°18.741 2°43.18 266.7 8.2 260 23
2003-04-01 07:54:52 51°18.739 2°43.163 266.7 8.2 260 23.1
2003-04-01 07:54:57 51°18.737 2°43.145 267 8.2 260 23.1
2003-04-01 07:55:02 51°18.735 2°43.126 267.1 8.3 261 23
2003-04-01 07:55:07 51°18.733 2°43.108 267 8.3 260 23.1
2003-04-01 07:55:12 51°18.731 2°43.091 267 8.3 260 23.1
2003-04-01 07:55:17 51°18.73 2°43.072 267.1 8.3 261 23.1
2003-04-01 07:55:21 51°18.728 2°43.057 267.2 8.3 261 23.2
2003-04-01 07:55:27 51°18.726 2°43.036 267.4 8.3 262 23.2
2003-04-01 07:55:32 51°18.725 2°43.018 267.7 8.3 261 23.2
2003-04-01 07:55:37 51°18.723 2°42.999 267.7 8.3 261 23.3
2003-04-01 07:55:42 51°18.721 2°42.981 267.8 8.4 262 23.2
2003-04-01 07:55:47 51°18.719 2°42.963 268.4 8.4 262 23.3